METAR Data
IDs: Format: Raw Decoded Include TAF

Data at: 1658 UTC 30 Oct 2020

METAR for:KEDU (Davis/University Arp, CA, US)
Text:KEDU 301640Z AUTO 02003KT 8SM CLR 13/02 A3010 RMK AO1
Temperature: 13.0°C ( 55°F)
Dewpoint: 2.0°C ( 36°F) [RH = 47%]
Pressure (altimeter):30.10 inches Hg (1019.4 mb)
Winds:from the NNE (20 degrees) at 3 MPH (3 knots; 1.5 m/s)
Visibility: 8 sm ( 13 km)
Ceiling:at least 12,000 feet AGL
Clouds:sky clear below 12,000 feet AGL
QC Flag:automated observation with no human augmentation
Text:KEDU 301620Z AUTO 00000KT 8SM CLR 11/02 A3010 RMK AO1
Temperature: 11.0°C ( 52°F)
Dewpoint: 2.0°C ( 36°F) [RH = 54%]
Pressure (altimeter):30.10 inches Hg (1019.4 mb)
Winds:calm
Visibility: 8 sm ( 13 km)
Ceiling:at least 12,000 feet AGL
Clouds:sky clear below 12,000 feet AGL
QC Flag:automated observation with no human augmentation
Text:KEDU 301600Z AUTO 00000KT 8SM CLR 09/02 A3010 RMK AO1
Temperature: 9.0°C ( 48°F)
Dewpoint: 2.0°C ( 36°F) [RH = 61%]
Pressure (altimeter):30.10 inches Hg (1019.4 mb)
Winds:calm
Visibility: 8 sm ( 13 km)
Ceiling:at least 12,000 feet AGL
Clouds:sky clear below 12,000 feet AGL
QC Flag:automated observation with no human augmentation
Text:KEDU 301540Z AUTO 00000KT 8SM FEW023 07/01 A3009 RMK AO1
Temperature: 7.0°C ( 45°F)
Dewpoint: 1.0°C ( 34°F) [RH = 66%]
Pressure (altimeter):30.09 inches Hg (1019.0 mb)
Winds:calm
Visibility: 8 sm ( 13 km)
Ceiling:at least 12,000 feet AGL
Clouds: few clouds at 2300 feet AGL
QC Flag:automated observation with no human augmentation
Text:KEDU 301520Z AUTO 00000KT 8SM FEW018 SCT023 07/01 A3008 RMK AO1
Temperature: 7.0°C ( 45°F)
Dewpoint: 1.0°C ( 34°F) [RH = 66%]
Pressure (altimeter):30.08 inches Hg (1018.7 mb)
Winds:calm
Visibility: 8 sm ( 13 km)
Ceiling:at least 12,000 feet AGL
Clouds: few clouds at 1800 feet AGL, scattered clouds at 2300 feet AGL
QC Flag:automated observation with no human augmentation
Text:KEDU 301500Z AUTO 02003KT 7SM FEW018 BKN023 07/01 A3008 RMK AO1
Temperature: 7.0°C ( 45°F)
Dewpoint: 1.0°C ( 34°F) [RH = 66%]
Pressure (altimeter):30.08 inches Hg (1018.7 mb)
Winds:from the NNE (20 degrees) at 3 MPH (3 knots; 1.5 m/s)
Visibility: 7 sm ( 11 km)
Ceiling:2300 feet AGL
Clouds: few clouds at 1800 feet AGL, broken clouds at 2300 feet AGL
QC Flag:automated observation with no human augmentation
Text:KEDU 301440Z AUTO 00000KT 8SM FEW018 BKN023 07/01 A3007 RMK AO1
Temperature: 7.0°C ( 45°F)
Dewpoint: 1.0°C ( 34°F) [RH = 66%]
Pressure (altimeter):30.07 inches Hg (1018.4 mb)
Winds:calm
Visibility: 8 sm ( 13 km)
Ceiling:2300 feet AGL
Clouds: few clouds at 1800 feet AGL, broken clouds at 2300 feet AGL
QC Flag:automated observation with no human augmentation
Text:KEDU 301420Z AUTO 00000KT 10SM FEW018 OVC023 06/00 A3007 RMK AO1
Temperature: 6.0°C ( 43°F)
Dewpoint: 0.0°C ( 32°F) [RH = 65%]
Pressure (altimeter):30.07 inches Hg (1018.4 mb)
Winds:calm
Visibility:10 or more sm (16+ km)
Ceiling:2300 feet AGL
Clouds: few clouds at 1800 feet AGL, overcast cloud deck at 2300 feet AGL
QC Flag:automated observation with no human augmentation
Text:KEDU 301400Z AUTO 00000KT 10SM FEW018 BKN023 06/00 A3006 RMK AO1
Temperature: 6.0°C ( 43°F)
Dewpoint: 0.0°C ( 32°F) [RH = 65%]
Pressure (altimeter):30.06 inches Hg (1018.0 mb)
Winds:calm
Visibility:10 or more sm (16+ km)
Ceiling:2300 feet AGL
Clouds: few clouds at 1800 feet AGL, broken clouds at 2300 feet AGL
QC Flag:automated observation with no human augmentation
Text:KEDU 301340Z AUTO 00000KT 10SM CLR 06/00 A3006 RMK AO1
Temperature: 6.0°C ( 43°F)
Dewpoint: 0.0°C ( 32°F) [RH = 65%]
Pressure (altimeter):30.06 inches Hg (1018.0 mb)
Winds:calm
Visibility:10 or more sm (16+ km)
Ceiling:at least 12,000 feet AGL
Clouds:sky clear below 12,000 feet AGL
QC Flag:automated observation with no human augmentation
Text:KEDU 301320Z AUTO 00000KT 10SM FEW023 07/01 A3006 RMK AO1
Temperature: 7.0°C ( 45°F)
Dewpoint: 1.0°C ( 34°F) [RH = 66%]
Pressure (altimeter):30.06 inches Hg (1018.0 mb)
Winds:calm
Visibility:10 or more sm (16+ km)
Ceiling:at least 12,000 feet AGL
Clouds: few clouds at 2300 feet AGL
QC Flag:automated observation with no human augmentation
Text:KEDU 301300Z AUTO 00000KT 10SM SCT023 06/00 A3006 RMK AO1
Temperature: 6.0°C ( 43°F)
Dewpoint: 0.0°C ( 32°F) [RH = 65%]
Pressure (altimeter):30.06 inches Hg (1018.0 mb)
Winds:calm
Visibility:10 or more sm (16+ km)
Ceiling:at least 12,000 feet AGL
Clouds: scattered clouds at 2300 feet AGL
QC Flag:automated observation with no human augmentation
Text:KEDU 301240Z AUTO 00000KT 10SM BKN023 07/00 A3005 RMK AO1
Temperature: 7.0°C ( 45°F)
Dewpoint: 0.0°C ( 32°F) [RH = 61%]
Pressure (altimeter):30.05 inches Hg (1017.7 mb)
Winds:calm
Visibility:10 or more sm (16+ km)
Ceiling:2300 feet AGL
Clouds: broken clouds at 2300 feet AGL
QC Flag:automated observation with no human augmentation
Text:KEDU 301220Z AUTO 00000KT 10SM SCT023 07/01 A3005 RMK AO1
Temperature: 7.0°C ( 45°F)
Dewpoint: 1.0°C ( 34°F) [RH = 66%]
Pressure (altimeter):30.05 inches Hg (1017.7 mb)
Winds:calm
Visibility:10 or more sm (16+ km)
Ceiling:at least 12,000 feet AGL
Clouds: scattered clouds at 2300 feet AGL
QC Flag:automated observation with no human augmentation
Text:KEDU 301200Z AUTO 35003KT 10SM FEW018 BKN023 08/02 A3004 RMK AO1
Temperature: 8.0°C ( 46°F)
Dewpoint: 2.0°C ( 36°F) [RH = 66%]
Pressure (altimeter):30.04 inches Hg (1017.4 mb)
Winds:from the N (350 degrees) at 3 MPH (3 knots; 1.5 m/s)
Visibility:10 or more sm (16+ km)
Ceiling:2300 feet AGL
Clouds: few clouds at 1800 feet AGL, broken clouds at 2300 feet AGL
QC Flag:automated observation with no human augmentation
Text:KEDU 301140Z AUTO 34003KT 10SM BKN023 07/01 A3004 RMK AO1
Temperature: 7.0°C ( 45°F)
Dewpoint: 1.0°C ( 34°F) [RH = 66%]
Pressure (altimeter):30.04 inches Hg (1017.4 mb)
Winds:from the NNW (340 degrees) at 3 MPH (3 knots; 1.5 m/s)
Visibility:10 or more sm (16+ km)
Ceiling:2300 feet AGL
Clouds: broken clouds at 2300 feet AGL
QC Flag:automated observation with no human augmentation
Text:KEDU 301120Z AUTO 32003KT 10SM BKN023 07/01 A3005 RMK AO1
Temperature: 7.0°C ( 45°F)
Dewpoint: 1.0°C ( 34°F) [RH = 66%]
Pressure (altimeter):30.05 inches Hg (1017.7 mb)
Winds:from the NW (320 degrees) at 3 MPH (3 knots; 1.5 m/s)
Visibility:10 or more sm (16+ km)
Ceiling:2300 feet AGL
Clouds: broken clouds at 2300 feet AGL
QC Flag:automated observation with no human augmentation
Text:KEDU 301100Z AUTO 00000KT 10SM BKN023 07/01 A3005 RMK AO1
Temperature: 7.0°C ( 45°F)
Dewpoint: 1.0°C ( 34°F) [RH = 66%]
Pressure (altimeter):30.05 inches Hg (1017.7 mb)
Winds:calm
Visibility:10 or more sm (16+ km)
Ceiling:2300 feet AGL
Clouds: broken clouds at 2300 feet AGL
QC Flag:automated observation with no human augmentation
Text:KEDU 301040Z AUTO 30003KT 10SM BKN023 08/02 A3005 RMK AO1
Temperature: 8.0°C ( 46°F)
Dewpoint: 2.0°C ( 36°F) [RH = 66%]
Pressure (altimeter):30.05 inches Hg (1017.7 mb)
Winds:from the WNW (300 degrees) at 3 MPH (3 knots; 1.5 m/s)
Visibility:10 or more sm (16+ km)
Ceiling:2300 feet AGL
Clouds: broken clouds at 2300 feet AGL
QC Flag:automated observation with no human augmentation
Text:KEDU 301020Z AUTO 00000KT 10SM BKN023 08/02 A3005 RMK AO1
Temperature: 8.0°C ( 46°F)
Dewpoint: 2.0°C ( 36°F) [RH = 66%]
Pressure (altimeter):30.05 inches Hg (1017.7 mb)
Winds:calm
Visibility:10 or more sm (16+ km)
Ceiling:2300 feet AGL
Clouds: broken clouds at 2300 feet AGL
QC Flag:automated observation with no human augmentation
Text:KEDU 301000Z AUTO 00000KT 10SM FEW018 BKN023 08/02 A3005 RMK AO1
Temperature: 8.0°C ( 46°F)
Dewpoint: 2.0°C ( 36°F) [RH = 66%]
Pressure (altimeter):30.05 inches Hg (1017.7 mb)
Winds:calm
Visibility:10 or more sm (16+ km)
Ceiling:2300 feet AGL
Clouds: few clouds at 1800 feet AGL, broken clouds at 2300 feet AGL
QC Flag:automated observation with no human augmentation
Text:KEDU 300940Z AUTO 00000KT 10SM FEW018 OVC023 07/02 A3005 RMK AO1
Temperature: 7.0°C ( 45°F)
Dewpoint: 2.0°C ( 36°F) [RH = 70%]
Pressure (altimeter):30.05 inches Hg (1017.7 mb)
Winds:calm
Visibility:10 or more sm (16+ km)
Ceiling:2300 feet AGL
Clouds: few clouds at 1800 feet AGL, overcast cloud deck at 2300 feet AGL
QC Flag:automated observation with no human augmentation
Text:KEDU 300920Z AUTO 00000KT 10SM FEW018 OVC023 07/02 A3005 RMK AO1
Temperature: 7.0°C ( 45°F)
Dewpoint: 2.0°C ( 36°F) [RH = 70%]
Pressure (altimeter):30.05 inches Hg (1017.7 mb)
Winds:calm
Visibility:10 or more sm (16+ km)
Ceiling:2300 feet AGL
Clouds: few clouds at 1800 feet AGL, overcast cloud deck at 2300 feet AGL
QC Flag:automated observation with no human augmentation
Text:KEDU 300900Z AUTO 00000KT 10SM FEW018 BKN023 08/02 A3005 RMK AO1
Temperature: 8.0°C ( 46°F)
Dewpoint: 2.0°C ( 36°F) [RH = 66%]
Pressure (altimeter):30.05 inches Hg (1017.7 mb)
Winds:calm
Visibility:10 or more sm (16+ km)
Ceiling:2300 feet AGL
Clouds: few clouds at 1800 feet AGL, broken clouds at 2300 feet AGL
QC Flag:automated observation with no human augmentation
Text:KEDU 300840Z AUTO 00000KT 10SM FEW018 BKN023 08/02 A3004 RMK AO1
Temperature: 8.0°C ( 46°F)
Dewpoint: 2.0°C ( 36°F) [RH = 66%]
Pressure (altimeter):30.04 inches Hg (1017.4 mb)
Winds:calm
Visibility:10 or more sm (16+ km)
Ceiling:2300 feet AGL
Clouds: few clouds at 1800 feet AGL, broken clouds at 2300 feet AGL
QC Flag:automated observation with no human augmentation
Text:KEDU 300820Z AUTO 00000KT 10SM FEW018 OVC023 10/03 A3004 RMK AO1
Temperature: 10.0°C ( 50°F)
Dewpoint: 3.0°C ( 37°F) [RH = 62%]
Pressure (altimeter):30.04 inches Hg (1017.4 mb)
Winds:calm
Visibility:10 or more sm (16+ km)
Ceiling:2300 feet AGL
Clouds: few clouds at 1800 feet AGL, overcast cloud deck at 2300 feet AGL
QC Flag:automated observation with no human augmentation
Text:KEDU 300800Z AUTO 00000KT 10SM FEW018 OVC023 08/03 A3004 RMK AO1
Temperature: 8.0°C ( 46°F)
Dewpoint: 3.0°C ( 37°F) [RH = 71%]
Pressure (altimeter):30.04 inches Hg (1017.4 mb)
Winds:calm
Visibility:10 or more sm (16+ km)
Ceiling:2300 feet AGL
Clouds: few clouds at 1800 feet AGL, overcast cloud deck at 2300 feet AGL
QC Flag:automated observation with no human augmentation
Text:KEDU 300740Z AUTO 00000KT 10SM FEW018 OVC023 09/03 A3004 RMK AO1
Temperature: 9.0°C ( 48°F)
Dewpoint: 3.0°C ( 37°F) [RH = 66%]
Pressure (altimeter):30.04 inches Hg (1017.4 mb)
Winds:calm
Visibility:10 or more sm (16+ km)
Ceiling:2300 feet AGL
Clouds: few clouds at 1800 feet AGL, overcast cloud deck at 2300 feet AGL
QC Flag:automated observation with no human augmentation
Text:KEDU 300720Z AUTO 02003KT 10SM FEW018 OVC023 09/04 A3004 RMK AO1
Temperature: 9.0°C ( 48°F)
Dewpoint: 4.0°C ( 39°F) [RH = 71%]
Pressure (altimeter):30.04 inches Hg (1017.4 mb)
Winds:from the NNE (20 degrees) at 3 MPH (3 knots; 1.5 m/s)
Visibility:10 or more sm (16+ km)
Ceiling:2300 feet AGL
Clouds: few clouds at 1800 feet AGL, overcast cloud deck at 2300 feet AGL
QC Flag:automated observation with no human augmentation
Text:KEDU 300700Z AUTO 00000KT 10SM FEW018 OVC023 09/02 A3004 RMK AO1
Temperature: 9.0°C ( 48°F)
Dewpoint: 2.0°C ( 36°F) [RH = 61%]
Pressure (altimeter):30.04 inches Hg (1017.4 mb)
Winds:calm
Visibility:10 or more sm (16+ km)
Ceiling:2300 feet AGL
Clouds: few clouds at 1800 feet AGL, overcast cloud deck at 2300 feet AGL
QC Flag:automated observation with no human augmentation
Text:KEDU 300640Z AUTO 00000KT 10SM FEW018 OVC023 10/03 A3003 RMK AO1
Temperature: 10.0°C ( 50°F)
Dewpoint: 3.0°C ( 37°F) [RH = 62%]
Pressure (altimeter):30.03 inches Hg (1017.0 mb)
Winds:calm
Visibility:10 or more sm (16+ km)
Ceiling:2300 feet AGL
Clouds: few clouds at 1800 feet AGL, overcast cloud deck at 2300 feet AGL
QC Flag:automated observation with no human augmentation
Text:KEDU 300620Z AUTO 00000KT 10SM FEW018 BKN023 OVC030 10/02 A3004 RMK AO1
Temperature: 10.0°C ( 50°F)
Dewpoint: 2.0°C ( 36°F) [RH = 57%]
Pressure (altimeter):30.04 inches Hg (1017.4 mb)
Winds:calm
Visibility:10 or more sm (16+ km)
Ceiling:2300 feet AGL
Clouds: few clouds at 1800 feet AGL, broken clouds at 2300 feet AGL, overcast cloud deck at 3000 feet AGL
QC Flag:automated observation with no human augmentation
Text:KEDU 300600Z AUTO 00000KT 10SM BKN023 OVC030 10/02 A3003 RMK AO1
Temperature: 10.0°C ( 50°F)
Dewpoint: 2.0°C ( 36°F) [RH = 57%]
Pressure (altimeter):30.03 inches Hg (1017.0 mb)
Winds:calm
Visibility:10 or more sm (16+ km)
Ceiling:2300 feet AGL
Clouds: broken clouds at 2300 feet AGL, overcast cloud deck at 3000 feet AGL
QC Flag:automated observation with no human augmentation
Text:KEDU 300540Z AUTO 00000KT 10SM BKN023 OVC030 12/03 A3003 RMK AO1
Temperature: 12.0°C ( 54°F)
Dewpoint: 3.0°C ( 37°F) [RH = 54%]
Pressure (altimeter):30.03 inches Hg (1017.0 mb)
Winds:calm
Visibility:10 or more sm (16+ km)
Ceiling:2300 feet AGL
Clouds: broken clouds at 2300 feet AGL, overcast cloud deck at 3000 feet AGL
QC Flag:automated observation with no human augmentation
Text:KEDU 300520Z AUTO 00000KT 10SM SCT023 BKN030 12/03 A3002 RMK AO1
Temperature: 12.0°C ( 54°F)
Dewpoint: 3.0°C ( 37°F) [RH = 54%]
Pressure (altimeter):30.02 inches Hg (1016.7 mb)
Winds:calm
Visibility:10 or more sm (16+ km)
Ceiling:3000 feet AGL
Clouds: scattered clouds at 2300 feet AGL, broken clouds at 3000 feet AGL
QC Flag:automated observation with no human augmentation
Text:KEDU 300500Z AUTO 00000KT 10SM SCT030 12/04 A3002 RMK AO1
Temperature: 12.0°C ( 54°F)
Dewpoint: 4.0°C ( 39°F) [RH = 58%]
Pressure (altimeter):30.02 inches Hg (1016.7 mb)
Winds:calm
Visibility:10 or more sm (16+ km)
Ceiling:at least 12,000 feet AGL
Clouds: scattered clouds at 3000 feet AGL
QC Flag:automated observation with no human augmentation
Text:KEDU 300440Z AUTO 00000KT 10SM FEW030 12/04 A3001 RMK AO1
Temperature: 12.0°C ( 54°F)
Dewpoint: 4.0°C ( 39°F) [RH = 58%]
Pressure (altimeter):30.01 inches Hg (1016.3 mb)
Winds:calm
Visibility:10 or more sm (16+ km)
Ceiling:at least 12,000 feet AGL
Clouds: few clouds at 3000 feet AGL
QC Flag:automated observation with no human augmentation
Text:KEDU 300420Z AUTO 00000KT 10SM CLR 13/03 A3001 RMK AO1
Temperature: 13.0°C ( 55°F)
Dewpoint: 3.0°C ( 37°F) [RH = 51%]
Pressure (altimeter):30.01 inches Hg (1016.3 mb)
Winds:calm
Visibility:10 or more sm (16+ km)
Ceiling:at least 12,000 feet AGL
Clouds:sky clear below 12,000 feet AGL
QC Flag:automated observation with no human augmentation
Text:KEDU 300400Z AUTO 00000KT 10SM CLR 13/03 A3001 RMK AO1
Temperature: 13.0°C ( 55°F)
Dewpoint: 3.0°C ( 37°F) [RH = 51%]
Pressure (altimeter):30.01 inches Hg (1016.3 mb)
Winds:calm
Visibility:10 or more sm (16+ km)
Ceiling:at least 12,000 feet AGL
Clouds:sky clear below 12,000 feet AGL
QC Flag:automated observation with no human augmentation
Text:KEDU 300340Z AUTO 00000KT 10SM CLR 15/03 A3001 RMK AO1
Temperature: 15.0°C ( 59°F)
Dewpoint: 3.0°C ( 37°F) [RH = 44%]
Pressure (altimeter):30.01 inches Hg (1016.3 mb)
Winds:calm
Visibility:10 or more sm (16+ km)
Ceiling:at least 12,000 feet AGL
Clouds:sky clear below 12,000 feet AGL
QC Flag:automated observation with no human augmentation
Text:KEDU 300320Z AUTO 00000KT 10SM CLR 13/03 A3002 RMK AO1
Temperature: 13.0°C ( 55°F)
Dewpoint: 3.0°C ( 37°F) [RH = 51%]
Pressure (altimeter):30.02 inches Hg (1016.7 mb)
Winds:calm
Visibility:10 or more sm (16+ km)
Ceiling:at least 12,000 feet AGL
Clouds:sky clear below 12,000 feet AGL
QC Flag:automated observation with no human augmentation
Text:KEDU 300300Z AUTO 00000KT 10SM CLR 15/03 A3001 RMK AO1
Temperature: 15.0°C ( 59°F)
Dewpoint: 3.0°C ( 37°F) [RH = 44%]
Pressure (altimeter):30.01 inches Hg (1016.3 mb)
Winds:calm
Visibility:10 or more sm (16+ km)
Ceiling:at least 12,000 feet AGL
Clouds:sky clear below 12,000 feet AGL
QC Flag:automated observation with no human augmentation
Text:KEDU 300240Z AUTO 21003KT 10SM CLR 17/02 A3001 RMK AO1
Temperature: 17.0°C ( 63°F)
Dewpoint: 2.0°C ( 36°F) [RH = 36%]
Pressure (altimeter):30.01 inches Hg (1016.3 mb)
Winds:from the SSW (210 degrees) at 3 MPH (3 knots; 1.5 m/s)
Visibility:10 or more sm (16+ km)
Ceiling:at least 12,000 feet AGL
Clouds:sky clear below 12,000 feet AGL
QC Flag:automated observation with no human augmentation
Text:KEDU 300220Z AUTO 20003KT 10SM CLR 17/03 A3000 RMK AO1
Temperature: 17.0°C ( 63°F)
Dewpoint: 3.0°C ( 37°F) [RH = 39%]
Pressure (altimeter):30.00 inches Hg (1016.0 mb)
Winds:from the SSW (200 degrees) at 3 MPH (3 knots; 1.5 m/s)
Visibility:10 or more sm (16+ km)
Ceiling:at least 12,000 feet AGL
Clouds:sky clear below 12,000 feet AGL
QC Flag:automated observation with no human augmentation
Text:KEDU 300200Z AUTO 19003KT 10SM CLR 18/02 A3000 RMK AO1
Temperature: 18.0°C ( 64°F)
Dewpoint: 2.0°C ( 36°F) [RH = 34%]
Pressure (altimeter):30.00 inches Hg (1016.0 mb)
Winds:from the S (190 degrees) at 3 MPH (3 knots; 1.5 m/s)
Visibility:10 or more sm (16+ km)
Ceiling:at least 12,000 feet AGL
Clouds:sky clear below 12,000 feet AGL
QC Flag:automated observation with no human augmentation
Text:KEDU 300140Z AUTO 00000KT 9SM CLR 19/03 A3000 RMK AO1
Temperature: 19.0°C ( 66°F)
Dewpoint: 3.0°C ( 37°F) [RH = 34%]
Pressure (altimeter):30.00 inches Hg (1016.0 mb)
Winds:calm
Visibility: 9 sm ( 14 km)
Ceiling:at least 12,000 feet AGL
Clouds:sky clear below 12,000 feet AGL
QC Flag:automated observation with no human augmentation
Text:KEDU 300120Z AUTO 16004KT 9SM CLR 20/03 A3000 RMK AO1
Temperature: 20.0°C ( 68°F)
Dewpoint: 3.0°C ( 37°F) [RH = 32%]
Pressure (altimeter):30.00 inches Hg (1016.0 mb)
Winds:from the SSE (160 degrees) at 5 MPH (4 knots; 2.1 m/s)
Visibility: 9 sm ( 14 km)
Ceiling:at least 12,000 feet AGL
Clouds:sky clear below 12,000 feet AGL
QC Flag:automated observation with no human augmentation
Text:KEDU 300100Z AUTO 17004KT 9SM CLR 22/03 A3000 RMK AO1
Temperature: 22.0°C ( 72°F)
Dewpoint: 3.0°C ( 37°F) [RH = 29%]
Pressure (altimeter):30.00 inches Hg (1016.0 mb)
Winds:from the S (170 degrees) at 5 MPH (4 knots; 2.1 m/s)
Visibility: 9 sm ( 14 km)
Ceiling:at least 12,000 feet AGL
Clouds:sky clear below 12,000 feet AGL
QC Flag:automated observation with no human augmentation
Text:KEDU 300040Z AUTO 17003KT 9SM CLR 23/02 A3000 RMK AO1
Temperature: 23.0°C ( 73°F)
Dewpoint: 2.0°C ( 36°F) [RH = 25%]
Pressure (altimeter):30.00 inches Hg (1016.0 mb)
Winds:from the S (170 degrees) at 3 MPH (3 knots; 1.5 m/s)
Visibility: 9 sm ( 14 km)
Ceiling:at least 12,000 feet AGL
Clouds:sky clear below 12,000 feet AGL
QC Flag:automated observation with no human augmentation
Text:KEDU 300020Z AUTO 14004KT 9SM CLR 24/02 A3000 RMK AO1
Temperature: 24.0°C ( 75°F)
Dewpoint: 2.0°C ( 36°F) [RH = 24%]
Pressure (altimeter):30.00 inches Hg (1016.0 mb)
Winds:from the SE (140 degrees) at 5 MPH (4 knots; 2.1 m/s)
Visibility: 9 sm ( 14 km)
Ceiling:at least 12,000 feet AGL
Clouds:sky clear below 12,000 feet AGL
QC Flag:automated observation with no human augmentation
Text:KEDU 300000Z AUTO 00000KT 9SM CLR 25/01 A3000 RMK AO1
Temperature: 25.0°C ( 77°F)
Dewpoint: 1.0°C ( 34°F) [RH = 21%]
Pressure (altimeter):30.00 inches Hg (1016.0 mb)
Winds:calm
Visibility: 9 sm ( 14 km)
Ceiling:at least 12,000 feet AGL
Clouds:sky clear below 12,000 feet AGL
QC Flag:automated observation with no human augmentation
Text:KEDU 292340Z AUTO 00000KT 10SM CLR 25/00 A3000 RMK AO1
Temperature: 25.0°C ( 77°F)
Dewpoint: 0.0°C ( 32°F) [RH = 19%]
Pressure (altimeter):30.00 inches Hg (1016.0 mb)
Winds:calm
Visibility:10 or more sm (16+ km)
Ceiling:at least 12,000 feet AGL
Clouds:sky clear below 12,000 feet AGL
QC Flag:automated observation with no human augmentation
Text:KEDU 292320Z AUTO 15003KT 10SM CLR 25/00 A3000 RMK AO1
Temperature: 25.0°C ( 77°F)
Dewpoint: 0.0°C ( 32°F) [RH = 19%]
Pressure (altimeter):30.00 inches Hg (1016.0 mb)
Winds:from the SSE (150 degrees) at 3 MPH (3 knots; 1.5 m/s)
Visibility:10 or more sm (16+ km)
Ceiling:at least 12,000 feet AGL
Clouds:sky clear below 12,000 feet AGL
QC Flag:automated observation with no human augmentation
Text:KEDU 292300Z AUTO 14003KT 10SM CLR 25/00 A3001 RMK AO1
Temperature: 25.0°C ( 77°F)
Dewpoint: 0.0°C ( 32°F) [RH = 19%]
Pressure (altimeter):30.01 inches Hg (1016.3 mb)
Winds:from the SE (140 degrees) at 3 MPH (3 knots; 1.5 m/s)
Visibility:10 or more sm (16+ km)
Ceiling:at least 12,000 feet AGL
Clouds:sky clear below 12,000 feet AGL
QC Flag:automated observation with no human augmentation
Text:KEDU 292240Z AUTO 00000KT 10SM CLR 25/00 A3001 RMK AO1
Temperature: 25.0°C ( 77°F)
Dewpoint: 0.0°C ( 32°F) [RH = 19%]
Pressure (altimeter):30.01 inches Hg (1016.3 mb)
Winds:calm
Visibility:10 or more sm (16+ km)
Ceiling:at least 12,000 feet AGL
Clouds:sky clear below 12,000 feet AGL
QC Flag:automated observation with no human augmentation
Text:KEDU 292220Z AUTO 00000KT 8SM CLR 24/00 A3002 RMK AO1
Temperature: 24.0°C ( 75°F)
Dewpoint: 0.0°C ( 32°F) [RH = 20%]
Pressure (altimeter):30.02 inches Hg (1016.7 mb)
Winds:calm
Visibility: 8 sm ( 13 km)
Ceiling:at least 12,000 feet AGL
Clouds:sky clear below 12,000 feet AGL
QC Flag:automated observation with no human augmentation
Text:KEDU 292200Z AUTO 20004KT 9SM CLR 24/00 A3002 RMK AO1
Temperature: 24.0°C ( 75°F)
Dewpoint: 0.0°C ( 32°F) [RH = 20%]
Pressure (altimeter):30.02 inches Hg (1016.7 mb)
Winds:from the SSW (200 degrees) at 5 MPH (4 knots; 2.1 m/s)
Visibility: 9 sm ( 14 km)
Ceiling:at least 12,000 feet AGL
Clouds:sky clear below 12,000 feet AGL
QC Flag:automated observation with no human augmentation
Text:KEDU 292140Z AUTO 09003KT 9SM CLR 24/01 A3003 RMK AO1
Temperature: 24.0°C ( 75°F)
Dewpoint: 1.0°C ( 34°F) [RH = 22%]
Pressure (altimeter):30.03 inches Hg (1017.0 mb)
Winds:from the E (90 degrees) at 3 MPH (3 knots; 1.5 m/s)
Visibility: 9 sm ( 14 km)
Ceiling:at least 12,000 feet AGL
Clouds:sky clear below 12,000 feet AGL
QC Flag:automated observation with no human augmentation
Text:KEDU 292120Z AUTO 00000KT 9SM CLR 24/01 A3004 RMK AO1
Temperature: 24.0°C ( 75°F)
Dewpoint: 1.0°C ( 34°F) [RH = 22%]
Pressure (altimeter):30.04 inches Hg (1017.4 mb)
Winds:calm
Visibility: 9 sm ( 14 km)
Ceiling:at least 12,000 feet AGL
Clouds:sky clear below 12,000 feet AGL
QC Flag:automated observation with no human augmentation
Text:KEDU 292100Z AUTO 00000KT 9SM CLR 23/01 A3005 RMK AO1
Temperature: 23.0°C ( 73°F)
Dewpoint: 1.0°C ( 34°F) [RH = 23%]
Pressure (altimeter):30.05 inches Hg (1017.7 mb)
Winds:calm
Visibility: 9 sm ( 14 km)
Ceiling:at least 12,000 feet AGL
Clouds:sky clear below 12,000 feet AGL
QC Flag:automated observation with no human augmentation
Text:KEDU 292040Z AUTO 03003KT 8SM CLR 23/01 A3006 RMK AO1
Temperature: 23.0°C ( 73°F)
Dewpoint: 1.0°C ( 34°F) [RH = 23%]
Pressure (altimeter):30.06 inches Hg (1018.0 mb)
Winds:from the NNE (30 degrees) at 3 MPH (3 knots; 1.5 m/s)
Visibility: 8 sm ( 13 km)
Ceiling:at least 12,000 feet AGL
Clouds:sky clear below 12,000 feet AGL
QC Flag:automated observation with no human augmentation
Text:KEDU 292020Z AUTO 00000KT 9SM CLR 22/01 A3007 RMK AO1
Temperature: 22.0°C ( 72°F)
Dewpoint: 1.0°C ( 34°F) [RH = 25%]
Pressure (altimeter):30.07 inches Hg (1018.4 mb)
Winds:calm
Visibility: 9 sm ( 14 km)
Ceiling:at least 12,000 feet AGL
Clouds:sky clear below 12,000 feet AGL
QC Flag:automated observation with no human augmentation
Text:KEDU 292000Z AUTO 00000KT 9SM CLR 22/01 A3008 RMK AO1
Temperature: 22.0°C ( 72°F)
Dewpoint: 1.0°C ( 34°F) [RH = 25%]
Pressure (altimeter):30.08 inches Hg (1018.7 mb)
Winds:calm
Visibility: 9 sm ( 14 km)
Ceiling:at least 12,000 feet AGL
Clouds:sky clear below 12,000 feet AGL
QC Flag:automated observation with no human augmentation
Text:KEDU 291940Z AUTO 00000KT 8SM CLR 21/01 A3009 RMK AO1
Temperature: 21.0°C ( 70°F)
Dewpoint: 1.0°C ( 34°F) [RH = 26%]
Pressure (altimeter):30.09 inches Hg (1019.0 mb)
Winds:calm
Visibility: 8 sm ( 13 km)
Ceiling:at least 12,000 feet AGL
Clouds:sky clear below 12,000 feet AGL
QC Flag:automated observation with no human augmentation
Text:KEDU 291920Z AUTO 00000KT 9SM CLR 20/02 A3010 RMK AO1
Temperature: 20.0°C ( 68°F)
Dewpoint: 2.0°C ( 36°F) [RH = 30%]
Pressure (altimeter):30.10 inches Hg (1019.4 mb)
Winds:calm
Visibility: 9 sm ( 14 km)
Ceiling:at least 12,000 feet AGL
Clouds:sky clear below 12,000 feet AGL
QC Flag:automated observation with no human augmentation
Text:KEDU 291900Z AUTO 35003KT 9SM CLR 20/02 A3010 RMK AO1
Temperature: 20.0°C ( 68°F)
Dewpoint: 2.0°C ( 36°F) [RH = 30%]
Pressure (altimeter):30.10 inches Hg (1019.4 mb)
Winds:from the N (350 degrees) at 3 MPH (3 knots; 1.5 m/s)
Visibility: 9 sm ( 14 km)
Ceiling:at least 12,000 feet AGL
Clouds:sky clear below 12,000 feet AGL
QC Flag:automated observation with no human augmentation
Text:KEDU 291840Z AUTO 35003KT 8SM FEW023 19/02 A3011 RMK AO1
Temperature: 19.0°C ( 66°F)
Dewpoint: 2.0°C ( 36°F) [RH = 32%]
Pressure (altimeter):30.11 inches Hg (1019.7 mb)
Winds:from the N (350 degrees) at 3 MPH (3 knots; 1.5 m/s)
Visibility: 8 sm ( 13 km)
Ceiling:at least 12,000 feet AGL
Clouds: few clouds at 2300 feet AGL
QC Flag:automated observation with no human augmentation
Text:KEDU 291820Z AUTO 36004KT 7SM FEW018 SCT023 BKN030 18/02 A3011 RMK AO1
Temperature: 18.0°C ( 64°F)
Dewpoint: 2.0°C ( 36°F) [RH = 34%]
Pressure (altimeter):30.11 inches Hg (1019.7 mb)
Winds:from the N (360 degrees) at 5 MPH (4 knots; 2.1 m/s)
Visibility: 7 sm ( 11 km)
Ceiling:3000 feet AGL
Clouds: few clouds at 1800 feet AGL, scattered clouds at 2300 feet AGL, broken clouds at 3000 feet AGL
QC Flag:automated observation with no human augmentation
Text:KEDU 291800Z AUTO 02004KT 7SM FEW018 BKN023 BKN030 17/02 A3012 RMK AO1
Temperature: 17.0°C ( 63°F)
Dewpoint: 2.0°C ( 36°F) [RH = 36%]
Pressure (altimeter):30.12 inches Hg (1020.1 mb)
Winds:from the NNE (20 degrees) at 5 MPH (4 knots; 2.1 m/s)
Visibility: 7 sm ( 11 km)
Ceiling:2300 feet AGL
Clouds: few clouds at 1800 feet AGL, broken clouds at 2300 feet AGL, broken clouds at 3000 feet AGL
QC Flag:automated observation with no human augmentation
Text:KEDU 291740Z AUTO 03004KT 5SM FEW023 SCT030 16/02 A3012 RMK AO1
Temperature: 16.0°C ( 61°F)
Dewpoint: 2.0°C ( 36°F) [RH = 39%]
Pressure (altimeter):30.12 inches Hg (1020.1 mb)
Winds:from the NNE (30 degrees) at 5 MPH (4 knots; 2.1 m/s)
Visibility: 5 sm ( 8 km)
Ceiling:at least 12,000 feet AGL
Clouds: few clouds at 2300 feet AGL, scattered clouds at 3000 feet AGL
QC Flag:automated observation with no human augmentation
Text:KEDU 291720Z AUTO 01003KT 7SM FEW030 15/02 A3012 RMK AO1
Temperature: 15.0°C ( 59°F)
Dewpoint: 2.0°C ( 36°F) [RH = 41%]
Pressure (altimeter):30.12 inches Hg (1020.1 mb)
Winds:from the N (10 degrees) at 3 MPH (3 knots; 1.5 m/s)
Visibility: 7 sm ( 11 km)
Ceiling:at least 12,000 feet AGL
Clouds: few clouds at 3000 feet AGL
QC Flag:automated observation with no human augmentation
Text:KEDU 291700Z AUTO 36003KT 6SM FEW018 FEW023 14/02 A3012 RMK AO1
Temperature: 14.0°C ( 57°F)
Dewpoint: 2.0°C ( 36°F) [RH = 44%]
Pressure (altimeter):30.12 inches Hg (1020.1 mb)
Winds:from the N (360 degrees) at 3 MPH (3 knots; 1.5 m/s)
Visibility: 6 sm ( 10 km)
Ceiling:at least 12,000 feet AGL
Clouds: few clouds at 1800 feet AGL, few clouds at 2300 feet AGL
QC Flag:automated observation with no human augmentation
Text:KEDU 291640Z AUTO 00000KT 5SM FEW018 BKN023 13/02 A3012 RMK AO1
Temperature: 13.0°C ( 55°F)
Dewpoint: 2.0°C ( 36°F) [RH = 47%]
Pressure (altimeter):30.12 inches Hg (1020.1 mb)
Winds:calm
Visibility: 5 sm ( 8 km)
Ceiling:2300 feet AGL
Clouds: few clouds at 1800 feet AGL, broken clouds at 2300 feet AGL
QC Flag:automated observation with no human augmentation
Text:KEDU 291620Z AUTO 35003KT 5SM FEW018 BKN023 OVC030 12/02 A3012 RMK AO1
Temperature: 12.0°C ( 54°F)
Dewpoint: 2.0°C ( 36°F) [RH = 50%]
Pressure (altimeter):30.12 inches Hg (1020.1 mb)
Winds:from the N (350 degrees) at 3 MPH (3 knots; 1.5 m/s)
Visibility: 5 sm ( 8 km)
Ceiling:2300 feet AGL
Clouds: few clouds at 1800 feet AGL, broken clouds at 2300 feet AGL, overcast cloud deck at 3000 feet AGL
QC Flag:automated observation with no human augmentation
Text:KEDU 291600Z AUTO 00000KT 6SM SCT023 OVC030 10/01 A3011 RMK AO1
Temperature: 10.0°C ( 50°F)
Dewpoint: 1.0°C ( 34°F) [RH = 53%]
Pressure (altimeter):30.11 inches Hg (1019.7 mb)
Winds:calm
Visibility: 6 sm ( 10 km)
Ceiling:3000 feet AGL
Clouds: scattered clouds at 2300 feet AGL, overcast cloud deck at 3000 feet AGL
QC Flag:automated observation with no human augmentation
Text:KEDU 291540Z AUTO 00000KT 6SM FEW023 BKN030 08/00 A3010 RMK AO1
Temperature: 8.0°C ( 46°F)
Dewpoint: 0.0°C ( 32°F) [RH = 57%]
Pressure (altimeter):30.10 inches Hg (1019.4 mb)
Winds:calm
Visibility: 6 sm ( 10 km)
Ceiling:3000 feet AGL
Clouds: few clouds at 2300 feet AGL, broken clouds at 3000 feet AGL
QC Flag:automated observation with no human augmentation
Text:KEDU 291520Z AUTO 00000KT 6SM BKN030 07/00 A3010 RMK AO1
Temperature: 7.0°C ( 45°F)
Dewpoint: 0.0°C ( 32°F) [RH = 61%]
Pressure (altimeter):30.10 inches Hg (1019.4 mb)
Winds:calm
Visibility: 6 sm ( 10 km)
Ceiling:3000 feet AGL
Clouds: broken clouds at 3000 feet AGL
QC Flag:automated observation with no human augmentation
Text:KEDU 291500Z AUTO 00000KT 2SM OVC030 06/00 A3010 RMK AO1
Temperature: 6.0°C ( 43°F)
Dewpoint: 0.0°C ( 32°F) [RH = 65%]
Pressure (altimeter):30.10 inches Hg (1019.4 mb)
Winds:calm
Visibility: 2.00 sm ( 3.22 km)
Ceiling:3000 feet AGL
Clouds: overcast cloud deck at 3000 feet AGL
QC Flag:automated observation with no human augmentation
Text:KEDU 291440Z AUTO 33003KT 1 1/4SM BKN030 07/00 A3010 RMK AO1
Temperature: 7.0°C ( 45°F)
Dewpoint: 0.0°C ( 32°F) [RH = 61%]
Pressure (altimeter):30.10 inches Hg (1019.4 mb)
Winds:from the NNW (330 degrees) at 3 MPH (3 knots; 1.5 m/s)
Visibility: 1.25 sm ( 2.01 km)
Ceiling:3000 feet AGL
Clouds: broken clouds at 3000 feet AGL
QC Flag:automated observation with no human augmentation
Text:KEDU 291420Z AUTO 00000KT 2 1/2SM SCT030 06/00 A3009 RMK AO1
Temperature: 6.0°C ( 43°F)
Dewpoint: 0.0°C ( 32°F) [RH = 65%]
Pressure (altimeter):30.09 inches Hg (1019.0 mb)
Winds:calm
Visibility: 2.50 sm ( 4.02 km)
Ceiling:at least 12,000 feet AGL
Clouds: scattered clouds at 3000 feet AGL
QC Flag:automated observation with no human augmentation
Text:KEDU 291400Z AUTO 00000KT 3SM SCT030 07/00 A3009 RMK AO1
Temperature: 7.0°C ( 45°F)
Dewpoint: 0.0°C ( 32°F) [RH = 61%]
Pressure (altimeter):30.09 inches Hg (1019.0 mb)
Winds:calm
Visibility: 3 sm ( 5 km)
Ceiling:at least 12,000 feet AGL
Clouds: scattered clouds at 3000 feet AGL
QC Flag:automated observation with no human augmentation
Text:KEDU 291340Z AUTO 00000KT 3SM FEW023 SCT030 06/00 A3009 RMK AO1
Temperature: 6.0°C ( 43°F)
Dewpoint: 0.0°C ( 32°F) [RH = 65%]
Pressure (altimeter):30.09 inches Hg (1019.0 mb)
Winds:calm
Visibility: 3 sm ( 5 km)
Ceiling:at least 12,000 feet AGL
Clouds: few clouds at 2300 feet AGL, scattered clouds at 3000 feet AGL
QC Flag:automated observation with no human augmentation
Text:KEDU 291320Z AUTO 00000KT 2 1/2SM FEW023 BKN030 07/00 A3009 RMK AO1
Temperature: 7.0°C ( 45°F)
Dewpoint: 0.0°C ( 32°F) [RH = 61%]
Pressure (altimeter):30.09 inches Hg (1019.0 mb)
Winds:calm
Visibility: 2.50 sm ( 4.02 km)
Ceiling:3000 feet AGL
Clouds: few clouds at 2300 feet AGL, broken clouds at 3000 feet AGL
QC Flag:automated observation with no human augmentation
Text:KEDU 291300Z AUTO 35003KT 2SM BKN023 OVC030 07/00 A3009 RMK AO1
Temperature: 7.0°C ( 45°F)
Dewpoint: 0.0°C ( 32°F) [RH = 61%]
Pressure (altimeter):30.09 inches Hg (1019.0 mb)
Winds:from the N (350 degrees) at 3 MPH (3 knots; 1.5 m/s)
Visibility: 2.00 sm ( 3.22 km)
Ceiling:2300 feet AGL
Clouds: broken clouds at 2300 feet AGL, overcast cloud deck at 3000 feet AGL
QC Flag:automated observation with no human augmentation
Text:KEDU 291240Z AUTO 00000KT 2 1/2SM BKN023 OVC030 07/00 A3009 RMK AO1
Temperature: 7.0°C ( 45°F)
Dewpoint: 0.0°C ( 32°F) [RH = 61%]
Pressure (altimeter):30.09 inches Hg (1019.0 mb)
Winds:calm
Visibility: 2.50 sm ( 4.02 km)
Ceiling:2300 feet AGL
Clouds: broken clouds at 2300 feet AGL, overcast cloud deck at 3000 feet AGL
QC Flag:automated observation with no human augmentation
Text:KEDU 291220Z AUTO 00000KT 2 1/2SM SCT023 OVC030 07/00 A3008 RMK AO1
Temperature: 7.0°C ( 45°F)
Dewpoint: 0.0°C ( 32°F) [RH = 61%]
Pressure (altimeter):30.08 inches Hg (1018.7 mb)
Winds:calm
Visibility: 2.50 sm ( 4.02 km)
Ceiling:3000 feet AGL
Clouds: scattered clouds at 2300 feet AGL, overcast cloud deck at 3000 feet AGL
QC Flag:automated observation with no human augmentation
Text:KEDU 291200Z AUTO 00000KT 3SM FEW023 OVC030 07/00 A3008 RMK AO1
Temperature: 7.0°C ( 45°F)
Dewpoint: 0.0°C ( 32°F) [RH = 61%]
Pressure (altimeter):30.08 inches Hg (1018.7 mb)
Winds:calm
Visibility: 3 sm ( 5 km)
Ceiling:3000 feet AGL
Clouds: few clouds at 2300 feet AGL, overcast cloud deck at 3000 feet AGL
QC Flag:automated observation with no human augmentation
Text:KEDU 291140Z AUTO 00000KT 5SM SCT023 OVC030 07/00 A3008 RMK AO1
Temperature: 7.0°C ( 45°F)
Dewpoint: 0.0°C ( 32°F) [RH = 61%]
Pressure (altimeter):30.08 inches Hg (1018.7 mb)
Winds:calm
Visibility: 5 sm ( 8 km)
Ceiling:3000 feet AGL
Clouds: scattered clouds at 2300 feet AGL, overcast cloud deck at 3000 feet AGL
QC Flag:automated observation with no human augmentation
Text:KEDU 291120Z AUTO 00000KT 5SM FEW023 OVC030 07/00 A3008 RMK AO1
Temperature: 7.0°C ( 45°F)
Dewpoint: 0.0°C ( 32°F) [RH = 61%]
Pressure (altimeter):30.08 inches Hg (1018.7 mb)
Winds:calm
Visibility: 5 sm ( 8 km)
Ceiling:3000 feet AGL
Clouds: few clouds at 2300 feet AGL, overcast cloud deck at 3000 feet AGL
QC Flag:automated observation with no human augmentation
Text:KEDU 291100Z AUTO 35003KT 3SM FEW023 OVC030 07/00 A3008 RMK AO1
Temperature: 7.0°C ( 45°F)
Dewpoint: 0.0°C ( 32°F) [RH = 61%]
Pressure (altimeter):30.08 inches Hg (1018.7 mb)
Winds:from the N (350 degrees) at 3 MPH (3 knots; 1.5 m/s)
Visibility: 3 sm ( 5 km)
Ceiling:3000 feet AGL
Clouds: few clouds at 2300 feet AGL, overcast cloud deck at 3000 feet AGL
QC Flag:automated observation with no human augmentation
Text:KEDU 291040Z AUTO 00000KT 3SM FEW023 OVC030 07/00 A3008 RMK AO1
Temperature: 7.0°C ( 45°F)
Dewpoint: 0.0°C ( 32°F) [RH = 61%]
Pressure (altimeter):30.08 inches Hg (1018.7 mb)
Winds:calm
Visibility: 3 sm ( 5 km)
Ceiling:3000 feet AGL
Clouds: few clouds at 2300 feet AGL, overcast cloud deck at 3000 feet AGL
QC Flag:automated observation with no human augmentation
Text:KEDU 291020Z AUTO 00000KT 2 1/2SM FEW023 OVC030 07/00 A3008 RMK AO1
Temperature: 7.0°C ( 45°F)
Dewpoint: 0.0°C ( 32°F) [RH = 61%]
Pressure (altimeter):30.08 inches Hg (1018.7 mb)
Winds:calm
Visibility: 2.50 sm ( 4.02 km)
Ceiling:3000 feet AGL
Clouds: few clouds at 2300 feet AGL, overcast cloud deck at 3000 feet AGL
QC Flag:automated observation with no human augmentation
Text:KEDU 291000Z AUTO 00000KT 2 1/2SM FEW023 OVC030 08/00 A3008 RMK AO1
Temperature: 8.0°C ( 46°F)
Dewpoint: 0.0°C ( 32°F) [RH = 57%]
Pressure (altimeter):30.08 inches Hg (1018.7 mb)
Winds:calm
Visibility: 2.50 sm ( 4.02 km)
Ceiling:3000 feet AGL
Clouds: few clouds at 2300 feet AGL, overcast cloud deck at 3000 feet AGL
QC Flag:automated observation with no human augmentation
Text:KEDU 290940Z AUTO 00000KT 2SM BKN023 OVC030 08/00 A3008 RMK AO1
Temperature: 8.0°C ( 46°F)
Dewpoint: 0.0°C ( 32°F) [RH = 57%]
Pressure (altimeter):30.08 inches Hg (1018.7 mb)
Winds:calm
Visibility: 2.00 sm ( 3.22 km)
Ceiling:2300 feet AGL
Clouds: broken clouds at 2300 feet AGL, overcast cloud deck at 3000 feet AGL
QC Flag:automated observation with no human augmentation
Text:KEDU 290920Z AUTO 00000KT 2 1/2SM FEW023 OVC030 08/01 A3008 RMK AO1
Temperature: 8.0°C ( 46°F)
Dewpoint: 1.0°C ( 34°F) [RH = 61%]
Pressure (altimeter):30.08 inches Hg (1018.7 mb)
Winds:calm
Visibility: 2.50 sm ( 4.02 km)
Ceiling:3000 feet AGL
Clouds: few clouds at 2300 feet AGL, overcast cloud deck at 3000 feet AGL
QC Flag:automated observation with no human augmentation
Text:KEDU 290900Z AUTO 00000KT 2 1/2SM FEW023 OVC030 07/00 A3008 RMK AO1
Temperature: 7.0°C ( 45°F)
Dewpoint: 0.0°C ( 32°F) [RH = 61%]
Pressure (altimeter):30.08 inches Hg (1018.7 mb)
Winds:calm
Visibility: 2.50 sm ( 4.02 km)
Ceiling:3000 feet AGL
Clouds: few clouds at 2300 feet AGL, overcast cloud deck at 3000 feet AGL
QC Flag:automated observation with no human augmentation
Text:KEDU 290840Z AUTO 00000KT 2 1/2SM FEW023 OVC030 08/01 A3008 RMK AO1
Temperature: 8.0°C ( 46°F)
Dewpoint: 1.0°C ( 34°F) [RH = 61%]
Pressure (altimeter):30.08 inches Hg (1018.7 mb)
Winds:calm
Visibility: 2.50 sm ( 4.02 km)
Ceiling:3000 feet AGL
Clouds: few clouds at 2300 feet AGL, overcast cloud deck at 3000 feet AGL
QC Flag:automated observation with no human augmentation
Text:KEDU 290820Z AUTO 00000KT 2 1/2SM FEW023 OVC030 07/01 A3008 RMK AO1
Temperature: 7.0°C ( 45°F)
Dewpoint: 1.0°C ( 34°F) [RH = 66%]
Pressure (altimeter):30.08 inches Hg (1018.7 mb)
Winds:calm
Visibility: 2.50 sm ( 4.02 km)
Ceiling:3000 feet AGL
Clouds: few clouds at 2300 feet AGL, overcast cloud deck at 3000 feet AGL
QC Flag:automated observation with no human augmentation
Text:KEDU 290800Z AUTO 00000KT 2 1/2SM FEW023 BKN030 08/01 A3008 RMK AO1
Temperature: 8.0°C ( 46°F)
Dewpoint: 1.0°C ( 34°F) [RH = 61%]
Pressure (altimeter):30.08 inches Hg (1018.7 mb)
Winds:calm
Visibility: 2.50 sm ( 4.02 km)
Ceiling:3000 feet AGL
Clouds: few clouds at 2300 feet AGL, broken clouds at 3000 feet AGL
QC Flag:automated observation with no human augmentation
Text:KEDU 290740Z AUTO 00000KT 2 1/2SM FEW023 BKN030 09/01 A3008 RMK AO1
Temperature: 9.0°C ( 48°F)
Dewpoint: 1.0°C ( 34°F) [RH = 57%]
Pressure (altimeter):30.08 inches Hg (1018.7 mb)
Winds:calm
Visibility: 2.50 sm ( 4.02 km)
Ceiling:3000 feet AGL
Clouds: few clouds at 2300 feet AGL, broken clouds at 3000 feet AGL
QC Flag:automated observation with no human augmentation
Text:KEDU 290720Z AUTO 00000KT 4SM BKN030 09/02 A3008 RMK AO1
Temperature: 9.0°C ( 48°F)
Dewpoint: 2.0°C ( 36°F) [RH = 61%]
Pressure (altimeter):30.08 inches Hg (1018.7 mb)
Winds:calm
Visibility: 4 sm ( 6 km)
Ceiling:3000 feet AGL
Clouds: broken clouds at 3000 feet AGL
QC Flag:automated observation with no human augmentation
Text:KEDU 290700Z AUTO 00000KT 2 1/2SM SCT030 10/02 A3007 RMK AO1
Temperature: 10.0°C ( 50°F)
Dewpoint: 2.0°C ( 36°F) [RH = 57%]
Pressure (altimeter):30.07 inches Hg (1018.4 mb)
Winds:calm
Visibility: 2.50 sm ( 4.02 km)
Ceiling:at least 12,000 feet AGL
Clouds: scattered clouds at 3000 feet AGL
QC Flag:automated observation with no human augmentation
Text:KEDU 290640Z AUTO 00000KT 2 1/2SM CLR 10/02 A3007 RMK AO1
Temperature: 10.0°C ( 50°F)
Dewpoint: 2.0°C ( 36°F) [RH = 57%]
Pressure (altimeter):30.07 inches Hg (1018.4 mb)
Winds:calm
Visibility: 2.50 sm ( 4.02 km)
Ceiling:at least 12,000 feet AGL
Clouds:sky clear below 12,000 feet AGL
QC Flag:automated observation with no human augmentation
Text:KEDU 290620Z AUTO 00000KT 2 1/2SM CLR 10/02 A3007 RMK AO1
Temperature: 10.0°C ( 50°F)
Dewpoint: 2.0°C ( 36°F) [RH = 57%]
Pressure (altimeter):30.07 inches Hg (1018.4 mb)
Winds:calm
Visibility: 2.50 sm ( 4.02 km)
Ceiling:at least 12,000 feet AGL
Clouds:sky clear below 12,000 feet AGL
QC Flag:automated observation with no human augmentation
Text:KEDU 290600Z AUTO 00000KT 3SM CLR 10/02 A3007 RMK AO1
Temperature: 10.0°C ( 50°F)
Dewpoint: 2.0°C ( 36°F) [RH = 57%]
Pressure (altimeter):30.07 inches Hg (1018.4 mb)
Winds:calm
Visibility: 3 sm ( 5 km)
Ceiling:at least 12,000 feet AGL
Clouds:sky clear below 12,000 feet AGL
QC Flag:automated observation with no human augmentation
Text:KEDU 290540Z AUTO 00000KT 2 1/2SM CLR 12/02 A3006 RMK AO1
Temperature: 12.0°C ( 54°F)
Dewpoint: 2.0°C ( 36°F) [RH = 50%]
Pressure (altimeter):30.06 inches Hg (1018.0 mb)
Winds:calm
Visibility: 2.50 sm ( 4.02 km)
Ceiling:at least 12,000 feet AGL
Clouds:sky clear below 12,000 feet AGL
QC Flag:automated observation with no human augmentation
Text:KEDU 290520Z AUTO 00000KT 2 1/2SM CLR 11/02 A3006 RMK AO1
Temperature: 11.0°C ( 52°F)
Dewpoint: 2.0°C ( 36°F) [RH = 54%]
Pressure (altimeter):30.06 inches Hg (1018.0 mb)
Winds:calm
Visibility: 2.50 sm ( 4.02 km)
Ceiling:at least 12,000 feet AGL
Clouds:sky clear below 12,000 feet AGL
QC Flag:automated observation with no human augmentation
Text:KEDU 290500Z AUTO 00000KT 3SM CLR 13/02 A3005 RMK AO1
Temperature: 13.0°C ( 55°F)
Dewpoint: 2.0°C ( 36°F) [RH = 47%]
Pressure (altimeter):30.05 inches Hg (1017.7 mb)
Winds:calm
Visibility: 3 sm ( 5 km)
Ceiling:at least 12,000 feet AGL
Clouds:sky clear below 12,000 feet AGL
QC Flag:automated observation with no human augmentation